^^
Meteo Knjazevac Station Historical Data
Daily Summary for May 21, 2022 Units:  English    Metric   Both
Daily Weekly Monthly Yearly Custom
  High: Low: Average:
Temperature: 89.2 °F 41.7 °F 68 °F
Dew Point: 61.8 °F 35.9 °F 49.2 °F
Humidity: 81% 35% 55%
Wind Speed: 10mph 0mph 3.2mph
Wind Gust: 17mph - -
Wind- - WSW
Pressure: 30.18 in 29.99 in -
Precipitation: 0.00 in    
Historical Graphs
 
 
Tabular Data for May 21, 2022
Time Temperature Dew Point Pressure Wind Wind Speed Wind Gust Humidity Rainfall Rate (Hourly) solar Conditions
00:00 49.6 °F 37.6 °F 30.18 in Calm   3 mph 63% 0.00 in 0 W/m2
00:10 48.9 °F 37.3 °F 30.17 in West 2 mph 3 mph 64% 0.00 in 0 W/m2
00:20 47.8 °F 36.6 °F 30.17 in West 2 mph 4 mph 65% 0.00 in 0 W/m2
00:30 47.3 °F 36.9 °F 30.17 in West 3 mph 5 mph 67% 0.00 in 0 W/m2
00:40 47.3 °F 36.9 °F 30.17 in West 2 mph 5 mph 67% 0.00 in 0 W/m2
00:50 47.3 °F 36.9 °F 30.17 in West 5 mph 6 mph 67% 0.00 in 0 W/m2
01:00 47.3 °F 36.9 °F 30.17 in WNW 2 mph 6 mph 67% 0.00 in 0 W/m2
01:10 47.1 °F 36.7 °F 30.17 in NW 1 mph 4 mph 67% 0.00 in 0 W/m2
01:20 46.4 °F 36.4 °F 30.17 in West 2 mph 3 mph 68% 0.00 in 0 W/m2
01:30 45.7 °F 36.1 °F 30.16 in WSW 1 mph 4 mph 69% 0.00 in 0 W/m2
01:40 45 °F 36.5 °F 30.16 in West 2 mph 4 mph 72% 0.00 in 0 W/m2
01:50 45 °F 36.5 °F 30.16 in WNW 1 mph 4 mph 72% 0.00 in 0 W/m2
02:00 45 °F 36.5 °F 30.16 in West 3 mph 4 mph 72% 0.00 in 0 W/m2
02:10 44.8 °F 36.3 °F 30.16 in WNW 2 mph 5 mph 72% 0.00 in 0 W/m2
02:20 44.6 °F 36.5 °F 30.16 in NW 1 mph 4 mph 73% 0.00 in 0 W/m2
02:30 44.2 °F 36.1 °F 30.15 in WNW 1 mph 4 mph 73% 0.00 in 0 W/m2
02:40 43.7 °F 36 °F 30.15 in WSW 2 mph 6 mph 74% 0.00 in 0 W/m2
02:50 43.5 °F 36.1 °F 30.15 in WNW 3 mph 6 mph 75% 0.00 in 0 W/m2
03:00 43.7 °F 36 °F 30.15 in West 2 mph 5 mph 74% 0.00 in 0 W/m2
03:10 43.5 °F 36.1 °F 30.15 in West 3 mph 5 mph 75% 0.00 in 0 W/m2
03:20 43.3 °F 35.9 °F 30.15 in West 2 mph 5 mph 75% 0.00 in 0 W/m2
03:30 43.2 °F 36.4 °F 30.15 in West 1 mph 4 mph 77% 0.00 in 0 W/m2
03:40 43.2 °F 36.4 °F 30.14 in West 3 mph 5 mph 77% 0.00 in 0 W/m2
03:50 43 °F 36.3 °F 30.14 in West 1 mph 5 mph 77% 0.00 in 0 W/m2
04:00 42.8 °F 36.1 °F 30.14 in West 2 mph 5 mph 77% 0.00 in 0 W/m2
04:10 42.8 °F 36.4 °F 30.14 in WNW 2 mph 5 mph 78% 0.00 in 0 W/m2
04:20 42.6 °F 36.2 °F 30.14 in WNW 2 mph 5 mph 78% 0.00 in 0 W/m2
04:30 42.6 °F 36.2 °F 30.14 in WNW 1 mph 4 mph 78% 0.00 in 0 W/m2
04:40 42.4 °F 36.1 °F 30.14 in West 2 mph 5 mph 78% 0.00 in 0 W/m2
04:50 42.3 °F 36.2 °F 30.14 in West 2 mph 5 mph 79% 0.00 in 0 W/m2
05:00 42.3 °F 36.2 °F 30.14 in WNW 2 mph 6 mph 79% 0.00 in 3 W/m2
05:10 42.3 °F 36.2 °F 30.14 in WNW 1 mph 4 mph 79% 0.00 in 8 W/m2
05:20 42.1 °F 36.4 °F 30.14 in WNW 1 mph 5 mph 80% 0.00 in 14 W/m2
05:30 41.9 °F 36.2 °F 30.14 in WNW 1 mph 3 mph 80% 0.00 in 20 W/m2
05:40 41.7 °F 36 °F 30.14 in West 1 mph 3 mph 80% 0.00 in 29 W/m2
05:50 41.9 °F 36.2 °F 30.14 in WNW 2 mph 3 mph 80% 0.00 in 40 W/m2
06:00 42.1 °F 36.7 °F 30.14 in WNW 1 mph 5 mph 81% 0.00 in 44 W/m2
06:10 42.6 °F 37.2 °F 30.15 in WNW 1 mph 3 mph 81% 0.00 in 68 W/m2
06:20 43 °F 37.5 °F 30.15 in West 1 mph 3 mph 81% 0.00 in 114 W/m2
06:30 43.5 °F 38.1 °F 30.15 in West 2 mph 3 mph 81% 0.00 in 147 W/m2
06:40 44.4 °F 38.6 °F 30.14 in West 2 mph 4 mph 80% 0.00 in 154 W/m2
06:50 45.5 °F 39.4 °F 30.14 in NW 1 mph 3 mph 79% 0.00 in 182 W/m2
07:00 46.8 °F 40.3 °F 30.14 in Calm   3 mph 78% 0.00 in 215 W/m2
07:10 47.8 °F 41.6 °F 30.14 in Calm   4 mph 79% 0.00 in 269 W/m2
07:20 49.1 °F 42.2 °F 30.14 in Calm   2 mph 77% 0.00 in 300 W/m2
07:30 50.4 °F 42.7 °F 30.13 in West 1 mph 3 mph 75% 0.00 in 331 W/m2
07:40 51.8 °F 43.4 °F 30.13 in NW 2 mph 4 mph 73% 0.00 in 366 W/m2
07:50 53.4 °F 44.6 °F 30.13 in WNW 1 mph 2 mph 72% 0.00 in 396 W/m2
08:00 55.1 °F 45.1 °F 30.12 in Calm   2 mph 69% 0.00 in 429 W/m2
08:10 56.9 °F 46 °F 30.12 in North 2 mph 5 mph 67% 0.00 in 466 W/m2
08:20 59.9 °F 47.7 °F 30.12 in SE 3 mph 6 mph 64% 0.00 in 504 W/m2
08:30 63.3 °F 48.3 °F 30.11 in Calm   7 mph 58% 0.00 in 540 W/m2
08:40 65.9 °F 49.2 °F 30.11 in SSE 2 mph 5 mph 55% 0.00 in 573 W/m2
08:50 67.8 °F 50.1 °F 30.11 in SE 2 mph 5 mph 53% 0.00 in 603 W/m2
09:00 69.6 °F 51.2 °F 30.11 in Calm   6 mph 52% 0.00 in 635 W/m2
09:10 71.4 °F 51.3 °F 30.11 in SSE 2 mph 6 mph 49% 0.00 in 662 W/m2
09:20 72.9 °F 52.6 °F 30.11 in SE 2 mph 7 mph 49% 0.00 in 695 W/m2
09:30 74.1 °F 52.6 °F 30.10 in ESE 3 mph 8 mph 47% 0.00 in 729 W/m2
09:40 75.7 °F 52.9 °F 30.10 in SSE 2 mph 5 mph 45% 0.00 in 748 W/m2
09:50 76.8 °F 50.7 °F 30.10 in SW 3 mph 9 mph 40% 0.00 in 731 W/m2
10:00 77.4 °F 49.8 °F 30.10 in SW 8 mph 12 mph 38% 0.00 in 795 W/m2
10:10 77.9 °F 50.2 °F 30.09 in SW 6 mph 12 mph 38% 0.00 in 815 W/m2
10:20 78.6 °F 50.2 °F 30.09 in SW 7 mph 12 mph 37% 0.00 in 839 W/m2
10:30 79.4 °F 51.5 °F 30.09 in SW 5 mph 10 mph 38% 0.00 in 845 W/m2
10:40 80.2 °F 51.6 °F 30.09 in SW 5 mph 8 mph 37% 0.00 in 317 W/m2
10:50 80.8 °F 52.8 °F 30.09 in SW 2 mph 7 mph 38% 0.00 in 883 W/m2
11:00 81.7 °F 53.6 °F 30.09 in SSW 3 mph 7 mph 38% 0.00 in 892 W/m2
11:10 82 °F 53.2 °F 30.08 in SSE 3 mph 9 mph 37% 0.00 in 196 W/m2
11:20 82.8 °F 55.3 °F 30.07 in South 5 mph 8 mph 39% 0.00 in 889 W/m2
11:30 83.1 °F 55.6 °F 30.07 in SW 1 mph 7 mph 39% 0.00 in 726 W/m2
11:40 83.8 °F 55.5 °F 30.06 in SW 6 mph 12 mph 38% 0.00 in 532 W/m2
11:50 84 °F 54.9 °F 30.06 in South 3 mph 12 mph 37% 0.00 in 947 W/m2
12:00 84.6 °F 55.4 °F 30.06 in SSW 6 mph 12 mph 37% 0.00 in 921 W/m2
12:10 84.9 °F 54.2 °F 30.06 in SW 6 mph 9 mph 35% 0.00 in 929 W/m2
12:20 85.1 °F 55.9 °F 30.06 in SSW 3 mph 9 mph 37% 0.00 in 957 W/m2
12:30 85.6 °F 54.8 °F 30.05 in SW 3 mph 8 mph 35% 0.00 in 957 W/m2
12:40 86.2 °F 55.3 °F 30.05 in West 6 mph 12 mph 35% 0.00 in 511 W/m2
12:50 86.7 °F 55.8 °F 30.05 in West 5 mph 9 mph 35% 0.00 in 706 W/m2
13:00 87.3 °F 56.3 °F 30.05 in West 5 mph 9 mph 35% 0.00 in 337 W/m2
13:10 87.5 °F 57.2 °F 30.04 in West 2 mph 9 mph 36% 0.00 in 941 W/m2
13:20 87.6 °F 56.6 °F 30.04 in WSW 3 mph 8 mph 35% 0.00 in 933 W/m2
13:30 88 °F 56.9 °F 30.04 in West 3 mph 9 mph 35% 0.00 in 924 W/m2
13:40 87.6 °F 56.6 °F 30.04 in WSW 6 mph 12 mph 35% 0.00 in 914 W/m2
13:50 87.8 °F 56.7 °F 30.03 in WSW 6 mph 11 mph 35% 0.00 in 902 W/m2
14:00 88.4 °F 58.8 °F 30.03 in WSW 3 mph 11 mph 37% 0.00 in 888 W/m2
14:10 88.7 °F 59.1 °F 30.02 in West 6 mph 14 mph 37% 0.00 in 873 W/m2
14:20 88.9 °F 59.2 °F 30.02 in SW 2 mph 10 mph 37% 0.00 in 857 W/m2
14:30 89.2 °F 59.6 °F 30.02 in WSW 5 mph 12 mph 37% 0.00 in 839 W/m2
14:40 89.2 °F 58 °F 30.02 in WNW 7 mph 12 mph 35% 0.00 in 820 W/m2
14:50 89.1 °F 57.8 °F 30.01 in West 3 mph 12 mph 35% 0.00 in 800 W/m2
15:00 89.1 °F 59.4 °F 30.01 in West 3 mph 11 mph 37% 0.00 in 762 W/m2
15:10 89.2 °F 58 °F 30.01 in West 6 mph 12 mph 35% 0.00 in 757 W/m2
15:20 89.2 °F 58 °F 30.01 in West 7 mph 14 mph 35% 0.00 in 726 W/m2
15:30 89.1 °F 59.4 °F 30.01 in West 8 mph 13 mph 37% 0.00 in 695 W/m2
15:40 88.9 °F 59.2 °F 30.01 in West 10 mph 15 mph 37% 0.00 in 668 W/m2
15:50 88.7 °F 59.1 °F 30.00 in West 7 mph 15 mph 37% 0.00 in 639 W/m2
16:00 88.5 °F 59.7 °F 30.00 in WSW 7 mph 15 mph 38% 0.00 in 613 W/m2
16:10 88.5 °F 59.6 °F 30.00 in SW 8 mph 13 mph 38% 0.00 in 575 W/m2
16:20 88.3 °F 59.5 °F 30.00 in WSW 7 mph 14 mph 38% 0.00 in 553 W/m2
16:30 88.5 °F 60.4 °F 30.00 in WSW 6 mph 12 mph 39% 0.00 in 520 W/m2
16:40 88.3 °F 59.5 °F 29.99 in West 5 mph 11 mph 38% 0.00 in 486 W/m2
16:50 88.3 °F 60.2 °F 29.99 in West 7 mph 13 mph 39% 0.00 in 451 W/m2
17:00 88.3 °F 60.2 °F 29.99 in West 5 mph 13 mph 39% 0.00 in 417 W/m2
17:10 88.2 °F 60.1 °F 29.99 in West 6 mph 13 mph 39% 0.00 in 384 W/m2
17:20 87.8 °F 60.5 °F 29.99 in WSW 7 mph 16 mph 40% 0.00 in 349 W/m2
17:30 87.4 °F 59.4 °F 29.99 in West 7 mph 17 mph 39% 0.00 in 317 W/m2
17:40 87.4 °F 60.2 °F 29.99 in NNW 6 mph 10 mph 40% 0.00 in 283 W/m2
17:50 87.1 °F 61.2 °F 29.99 in West 2 mph 13 mph 42% 0.00 in 252 W/m2
18:00 86.9 °F 61 °F 29.99 in West 5 mph 9 mph 42% 0.00 in 224 W/m2
18:10 87 °F 61.8 °F 29.99 in WNW 3 mph 8 mph 43% 0.00 in 195 W/m2
18:20 86.4 °F 61.2 °F 29.99 in WNW 6 mph 14 mph 43% 0.00 in 169 W/m2
18:30 85.6 °F 60.6 °F 29.99 in West 5 mph 11 mph 43% 0.00 in 135 W/m2
18:40 85.1 °F 60.7 °F 29.99 in West 6 mph 12 mph 44% 0.00 in 120 W/m2
18:50 84.7 °F 60.4 °F 29.99 in West 5 mph 9 mph 44% 0.00 in 100 W/m2
19:00 84.4 °F 60.7 °F 29.99 in WNW 3 mph 9 mph 45% 0.00 in 65 W/m2
19:10 83.8 °F 61.5 °F 29.99 in West 2 mph 6 mph 47% 0.00 in 39 W/m2
19:20 83.1 °F 61.3 °F 29.99 in West 2 mph 5 mph 48% 0.00 in 24 W/m2
19:30 82.2 °F 61.2 °F 29.99 in West 1 mph 3 mph 49% 0.00 in 17 W/m2
19:40 81.3 °F 60.9 °F 29.99 in West 1 mph 3 mph 50% 0.00 in 11 W/m2
19:50 80.4 °F 60.6 °F 29.99 in WSW 2 mph 4 mph 51% 0.00 in 4 W/m2
20:00 79.5 °F 60.8 °F 29.99 in West 2 mph 5 mph 53% 0.00 in 0 W/m2
20:10 78.8 °F 60.7 °F 29.99 in WNW 5 mph 7 mph 54% 0.00 in 0 W/m2
20:30 77.7 °F 60.3 °F 30.00 in West 2 mph 5 mph 55% 0.00 in 0 W/m2
20:40 77.1 °F 60.2 °F 30.00 in NW 1 mph 5 mph 56% 0.00 in 0 W/m2
Knjazevac, Serbia
Compliments of Weather Underground - 2 mb